createdAt,value
2019-02-04T00:04:07.877Z,60.40
2019-02-04T00:09:14.068Z,60.40
2019-02-04T00:14:21.109Z,60.40
2019-02-04T00:19:27.698Z,60.30
2019-02-04T00:24:34.480Z,60.40
2019-02-04T00:29:40.960Z,60.40
2019-02-04T00:34:46.908Z,60.50
2019-02-04T00:39:53.371Z,60.50
2019-02-04T00:45:01.657Z,60.50
2019-02-04T00:50:09.011Z,60.50
2019-02-04T00:55:17.534Z,60.50
2019-02-04T01:00:27.750Z,60.50
2019-02-04T01:05:34.549Z,60.50
2019-02-04T01:10:39.805Z,60.60
2019-02-04T01:15:47.988Z,60.50
2019-02-04T01:20:55.182Z,60.50
2019-02-04T01:26:01.063Z,60.60
2019-02-04T01:31:08.844Z,60.60
2019-02-04T01:36:14.222Z,60.10
2019-02-04T01:41:19.626Z,60.60
2019-02-04T01:46:28.188Z,60.60
2019-02-04T01:51:35.134Z,60.60
2019-02-04T01:56:40.915Z,60.60
2019-02-04T02:01:46.424Z,60.90
2019-02-04T02:06:52.676Z,60.70
2019-02-04T02:12:00.184Z,60.60
2019-02-04T02:17:06.901Z,60.70
2019-02-04T02:22:13.774Z,60.60
2019-02-04T02:27:20.697Z,60.80
2019-02-04T02:32:26.826Z,60.80
2019-02-04T02:37:33.736Z,60.60
2019-02-04T02:42:40.015Z,60.70
2019-02-04T02:47:46.993Z,60.70
2019-02-04T02:52:53.218Z,60.80
2019-02-04T02:58:01.354Z,60.80
2019-02-04T03:03:07.827Z,60.70
2019-02-04T03:08:15.087Z,60.70
2019-02-04T03:13:21.607Z,60.70
2019-02-04T03:18:28.972Z,60.70
2019-02-04T03:23:35.688Z,60.70
2019-02-04T03:28:41.837Z,60.80
2019-02-04T03:33:49.372Z,60.70
2019-02-04T03:38:55.105Z,60.70
2019-02-04T03:44:00.970Z,60.70
2019-02-04T03:49:07.637Z,60.70
2019-02-04T03:54:14.473Z,60.70
2019-02-04T03:59:21.535Z,60.80
2019-02-04T04:04:29.640Z,60.70
2019-02-04T04:09:38.318Z,60.70
2019-02-04T04:14:45.102Z,60.70
2019-02-04T04:19:51.609Z,60.70
2019-02-04T04:24:57.502Z,61.50
2019-02-04T04:30:03.392Z,60.70
2019-02-04T04:35:10.175Z,60.70
2019-02-04T04:40:17.804Z,60.70
2019-02-04T04:45:24.303Z,60.70
2019-02-04T04:50:30.802Z,60.80
2019-02-04T04:55:39.081Z,60.80
2019-02-04T05:00:45.774Z,60.80
2019-02-04T05:05:52.657Z,60.80
2019-02-04T05:10:58.609Z,60.70
2019-02-04T05:16:04.569Z,60.80
2019-02-04T05:21:10.080Z,60.70
2019-02-04T05:26:16.375Z,60.70
2019-02-04T05:31:22.679Z,60.80
2019-02-04T05:36:32.728Z,61.60
2019-02-04T05:41:39.473Z,60.70
2019-02-04T05:46:46.265Z,60.70
2019-02-04T05:51:55.126Z,60.70
2019-02-04T05:57:02.382Z,60.60
2019-02-04T06:02:09.356Z,60.60
2019-02-04T06:07:15.739Z,60.70
2019-02-04T06:12:21.629Z,60.70
2019-02-04T06:17:29.152Z,60.70
2019-02-04T06:22:35.266Z,60.70
2019-02-04T06:27:41.269Z,60.60
2019-02-04T06:32:47.593Z,60.70
2019-02-04T06:37:55.404Z,60.60
2019-02-04T06:43:02.844Z,60.60
2019-02-04T06:48:08.909Z,60.50
2019-02-04T06:53:14.658Z,60.70
2019-02-04T06:58:21.149Z,60.50
2019-02-04T07:03:26.889Z,60.50
2019-02-04T07:08:34.416Z,61.20
2019-02-04T07:13:42.724Z,60.40
2019-02-04T07:18:50.389Z,60.30
2019-02-04T07:23:56.643Z,60.30
2019-02-04T07:29:05.035Z,60.30
2019-02-04T07:34:10.994Z,60.30
2019-02-04T07:39:17.872Z,60.30
2019-02-04T07:44:24.192Z,60.20
2019-02-04T07:49:40.657Z,60.20
2019-02-04T07:54:47.621Z,60.10
2019-02-04T07:59:54.948Z,60.20
2019-02-04T08:05:01.157Z,60.10
2019-02-04T08:10:08.128Z,60.20
2019-02-04T08:15:17.829Z,60.10
2019-02-04T08:20:25.429Z,60.10
2019-02-04T08:25:33.079Z,60.00
2019-02-04T08:30:42.193Z,60.00
2019-02-04T08:35:50.083Z,60.00
2019-02-04T08:40:57.112Z,60.00
2019-02-04T08:46:02.871Z,59.90
2019-02-04T08:51:15.814Z,60.00
2019-02-04T08:56:22.137Z,59.90
2019-02-04T09:01:28.484Z,59.90
2019-02-04T09:06:35.505Z,59.90
2019-02-04T09:11:42.250Z,59.90
2019-02-04T09:16:50.146Z,59.80
2019-02-04T09:21:58.535Z,59.80
2019-02-04T09:27:05.871Z,59.80
2019-02-04T09:32:13.148Z,59.80
2019-02-04T09:37:20.016Z,59.70
2019-02-04T09:42:27.487Z,59.70
2019-02-04T09:47:34.498Z,59.70
2019-02-04T09:52:41.395Z,59.70
2019-02-04T09:57:47.460Z,59.70
2019-02-04T10:02:53.230Z,59.70
2019-02-04T10:08:00.644Z,59.60
2019-02-04T10:13:07.296Z,59.70
2019-02-04T10:18:14.262Z,59.70
2019-02-04T10:23:20.760Z,59.70
2019-02-04T10:28:27.313Z,59.70
2019-02-04T10:33:34.869Z,59.60
2019-02-04T10:38:40.693Z,59.40
2019-02-04T10:43:46.337Z,59.50
2019-02-04T10:48:51.681Z,59.50
2019-02-04T10:53:58.094Z,59.50
2019-02-04T10:59:03.445Z,59.50
2019-02-04T11:04:10.351Z,59.40
2019-02-04T11:09:15.697Z,59.40
2019-02-04T11:14:23.611Z,59.40
2019-02-04T11:19:29.758Z,59.30
2019-02-04T11:24:35.053Z,59.40
2019-02-04T11:29:42.328Z,59.40
2019-02-04T11:34:50.808Z,59.30
2019-02-04T11:39:56.654Z,59.40
2019-02-04T11:45:04.178Z,59.40
2019-02-04T11:50:10.778Z,59.20
2019-02-04T11:55:17.167Z,59.30
2019-02-04T12:00:25.149Z,59.20
2019-02-04T12:05:31.498Z,59.20
2019-02-04T12:10:43.370Z,59.10
2019-02-04T12:15:49.769Z,59.00
2019-02-04T12:20:55.993Z,59.10
2019-02-04T12:26:01.998Z,58.90
2019-02-04T12:31:09.596Z,58.90
2019-02-04T12:36:15.571Z,58.80
2019-02-04T12:41:21.725Z,58.80
2019-02-04T12:46:28.324Z,58.80
2019-02-04T12:51:34.698Z,58.70
2019-02-04T12:56:41.070Z,58.70
2019-02-04T13:01:47.197Z,58.60
2019-02-04T13:06:55.077Z,58.60
2019-02-04T13:12:02.904Z,58.60
2019-02-04T13:17:09.312Z,58.40
2019-02-04T13:22:16.898Z,58.80
2019-02-04T13:27:22.807Z,58.50
2019-02-04T13:32:29.606Z,58.60
2019-02-04T13:37:36.829Z,58.50
2019-02-04T13:42:42.652Z,58.40
2019-02-04T13:47:51.884Z,58.30
2019-02-04T13:52:57.921Z,58.40
2019-02-04T13:58:04.462Z,58.30
2019-02-04T14:03:12.433Z,58.30
2019-02-04T14:08:17.549Z,58.20
2019-02-04T14:13:24.065Z,58.40
2019-02-04T14:18:29.542Z,58.20
2019-02-04T14:23:36.478Z,58.30
2019-02-04T14:28:44.150Z,58.40
2019-02-04T14:33:49.793Z,58.20
2019-02-04T14:38:56.893Z,58.30
2019-02-04T14:44:09.741Z,58.20
2019-02-04T14:49:51.133Z,58.20
2019-02-04T14:55:14.958Z,58.20
2019-02-04T15:01:25.459Z,58.20
2019-02-04T15:07:28.762Z,58.10
2019-02-04T15:13:01.148Z,58.10
2019-02-04T15:18:28.348Z,58.10
2019-02-04T15:24:08.895Z,58.00
2019-02-04T15:29:26.509Z,58.00
2019-02-04T15:35:09.170Z,58.00
2019-02-04T15:40:52.647Z,57.90
2019-02-04T15:46:42.570Z,58.50
2019-02-04T15:51:54.337Z,57.90
2019-02-04T15:57:00.608Z,57.80
2019-02-04T16:02:09.613Z,57.80
2019-02-04T16:07:16.940Z,57.80
2019-02-04T16:12:22.153Z,57.80
2019-02-04T16:17:28.666Z,57.80
2019-02-04T16:22:35.029Z,57.60
2019-02-04T16:27:42.879Z,57.60
2019-02-04T16:32:48.819Z,57.40
2019-02-04T16:37:56.325Z,57.30
2019-02-04T16:43:03.041Z,57.40
2019-02-04T16:48:11.516Z,57.30
2019-02-04T16:53:19.833Z,57.20
2019-02-04T16:58:30.658Z,57.20
2019-02-04T17:03:37.080Z,57.40
2019-02-04T17:08:43.439Z,57.20
2019-02-04T17:13:51.053Z,57.20
2019-02-04T17:18:57.936Z,57.20
2019-02-04T17:24:04.001Z,57.10
2019-02-04T17:29:09.548Z,57.10
2019-02-04T17:34:14.777Z,57.10
2019-02-04T17:39:19.921Z,57.10
2019-02-04T17:56:34.714Z,57.00
2019-02-04T18:01:43.089Z,56.90
2019-02-04T18:06:48.151Z,56.90
2019-02-04T18:11:56.341Z,56.80
2019-02-04T18:17:03.519Z,57.40
2019-02-04T18:22:09.428Z,56.80
2019-02-04T18:27:16.623Z,56.70
2019-02-04T18:32:22.885Z,56.60
2019-02-04T18:37:29.071Z,56.70
2019-02-04T18:42:35.946Z,56.50
2019-02-04T18:47:42.189Z,57.20
2019-02-04T18:52:48.086Z,56.60
2019-02-04T18:57:54.174Z,56.50
2019-02-04T19:03:00.000Z,56.50
2019-02-04T19:08:06.950Z,56.50
2019-02-04T19:13:12.736Z,56.50
2019-02-04T19:18:20.393Z,56.70
2019-02-04T19:23:47.777Z,56.30
2019-02-04T19:28:54.393Z,56.20
2019-02-04T19:34:01.881Z,56.30
2019-02-04T19:39:10.189Z,56.30
2019-02-04T19:44:15.974Z,56.30
2019-02-04T19:49:22.045Z,56.30
2019-02-04T19:54:28.286Z,56.30
2019-02-04T19:59:34.481Z,56.20
2019-02-04T20:04:40.774Z,56.10
2019-02-04T20:09:46.561Z,56.20
2019-02-04T20:14:52.833Z,56.20
2019-02-04T20:19:59.814Z,56.20
2019-02-04T20:25:06.001Z,56.00
2019-02-04T20:30:15.092Z,56.20
2019-02-04T20:35:22.153Z,56.20
2019-02-04T20:40:28.072Z,56.20
2019-02-04T20:45:34.530Z,56.10
2019-02-04T20:50:41.881Z,56.20
2019-02-04T20:55:48.070Z,56.20
2019-02-04T21:00:54.387Z,56.10
2019-02-04T21:06:00.053Z,56.00
2019-02-04T21:11:05.342Z,56.00
2019-02-04T21:16:11.776Z,56.00
2019-02-04T21:21:17.624Z,56.00
2019-02-04T21:26:23.398Z,56.00
2019-02-04T21:31:28.161Z,56.10
2019-02-04T21:36:34.656Z,56.10
2019-02-04T21:41:40.950Z,56.10
2019-02-04T21:46:46.719Z,56.20
2019-02-04T21:51:52.402Z,56.30
2019-02-04T21:56:59.033Z,56.10
2019-02-04T22:02:05.881Z,56.10
2019-02-04T22:07:13.302Z,56.20
2019-02-04T22:12:20.027Z,56.20
2019-02-04T22:17:26.255Z,56.20
2019-02-04T22:22:34.774Z,56.30
2019-02-04T22:27:40.286Z,56.30
2019-02-04T22:32:46.500Z,56.30
2019-02-04T22:37:54.637Z,56.20
2019-02-04T22:43:03.700Z,56.20
2019-02-04T22:48:11.866Z,56.20
2019-02-04T22:53:19.102Z,56.20
2019-02-04T22:58:28.161Z,56.20
2019-02-04T23:03:33.567Z,56.30
2019-02-04T23:08:40.649Z,56.20
2019-02-04T23:13:46.939Z,56.20
2019-02-04T23:18:53.389Z,56.30
2019-02-04T23:23:59.917Z,56.20
2019-02-04T23:29:07.645Z,56.50
2019-02-04T23:34:13.065Z,56.50
2019-02-04T23:39:20.085Z,56.50
2019-02-04T23:44:27.744Z,56.60
2019-02-04T23:49:34.210Z,56.70
2019-02-04T23:54:39.584Z,56.60
2019-02-04T23:59:45.877Z,56.70
